sensor_id;sensor_type;location;lat;lon;timestamp;pressure;altitude;pressure_sealevel;temperature;humidity
49178;BME280;35016;55.674;37.468;2023-07-31T00:01:23;98313.59;;;16.13;60.76
49178;BME280;35016;55.674;37.468;2023-07-31T00:03:50;98314.72;;;16.12;60.89
49178;BME280;35016;55.674;37.468;2023-07-31T00:06:17;98318.25;;;16.13;60.76
49178;BME280;35016;55.674;37.468;2023-07-31T00:08:44;98312.63;;;16.09;60.90
49178;BME280;35016;55.674;37.468;2023-07-31T00:11:11;98315.84;;;16.11;61.13
49178;BME280;35016;55.674;37.468;2023-07-31T00:13:38;98319.72;;;16.10;61.01
49178;BME280;35016;55.674;37.468;2023-07-31T00:16:05;98319.72;;;16.10;60.85
49178;BME280;35016;55.674;37.468;2023-07-31T00:18:32;98314.25;;;16.10;61.04
49178;BME280;35016;55.674;37.468;2023-07-31T00:20:59;98312.16;;;16.07;61.20
49178;BME280;35016;55.674;37.468;2023-07-31T00:23:26;98315.38;;;16.09;61.23
49178;BME280;35016;55.674;37.468;2023-07-31T00:25:53;98316.50;;;16.08;61.33
49178;BME280;35016;55.674;37.468;2023-07-31T00:28:20;98321.16;;;16.07;61.49
49178;BME280;35016;55.674;37.468;2023-07-31T00:30:51;98316.69;;;16.03;61.90
49178;BME280;35016;55.674;37.468;2023-07-31T00:33:18;98317.31;;;16.00;61.40
49178;BME280;35016;55.674;37.468;2023-07-31T00:35:45;98319.59;;;15.98;61.69
49178;BME280;35016;55.674;37.468;2023-07-31T00:38:12;98321.19;;;15.99;61.60
49178;BME280;35016;55.674;37.468;2023-07-31T00:40:39;98320.06;;;16.00;61.35
49178;BME280;35016;55.674;37.468;2023-07-31T00:43:06;98314.59;;;16.00;61.48
49178;BME280;35016;55.674;37.468;2023-07-31T00:45:34;98313.31;;;15.97;61.60
49178;BME280;35016;55.674;37.468;2023-07-31T00:48:01;98316.84;;;15.98;61.65
49178;BME280;35016;55.674;37.468;2023-07-31T00:50:29;98300.94;;;15.91;61.63
49178;BME280;35016;55.674;37.468;2023-07-31T00:52:58;98310.09;;;15.95;61.76
49178;BME280;35016;55.674;37.468;2023-07-31T00:55:25;98304.97;;;15.94;61.53
49178;BME280;35016;55.674;37.468;2023-07-31T00:57:52;98306.22;;;15.96;61.48
49178;BME280;35016;55.674;37.468;2023-07-31T01:00:19;98307.84;;;15.97;61.58
49178;BME280;35016;55.674;37.468;2023-07-31T01:02:47;98306.22;;;15.96;61.49
49178;BME280;35016;55.674;37.468;2023-07-31T01:05:15;98309.28;;;15.95;61.63
49178;BME280;35016;55.674;37.468;2023-07-31T01:07:52;98307.38;;;15.95;62.22
49178;BME280;35016;55.674;37.468;2023-07-31T01:10:26;98322.66;;;15.96;61.60
49178;BME280;35016;55.674;37.468;2023-07-31T01:12:56;98306.22;;;15.96;61.63
49178;BME280;35016;55.674;37.468;2023-07-31T01:15:24;98305.91;;;15.98;61.61
49178;BME280;35016;55.674;37.468;2023-07-31T01:17:51;98311.22;;;15.94;61.77
49178;BME280;35016;55.674;37.468;2023-07-31T01:20:23;98304.97;;;15.94;62.30
49178;BME280;35016;55.674;37.468;2023-07-31T01:28:06;98304.97;;;15.94;62.38
49178;BME280;35016;55.674;37.468;2023-07-31T01:30:37;98303.03;;;15.94;61.93
49178;BME280;35016;55.674;37.468;2023-07-31T01:33:07;98310.75;;;15.92;61.89
49178;BME280;35016;55.674;37.468;2023-07-31T01:35:36;98308.00;;;15.92;61.84
49178;BME280;35016;55.674;37.468;2023-07-31T01:38:07;98310.28;;;15.90;62.23
49178;BME280;35016;55.674;37.468;2023-07-31T01:40:34;98319.09;;;15.87;61.90
49178;BME280;35016;55.674;37.468;2023-07-31T01:43:01;98314.28;;;15.84;62.31
49178;BME280;35016;55.674;37.468;2023-07-31T01:45:29;98298.53;;;15.81;62.08
49178;BME280;35016;55.674;37.468;2023-07-31T01:47:56;98305.44;;;15.78;62.15
49178;BME280;35016;55.674;37.468;2023-07-31T01:50:23;98309.63;;;15.76;62.33
49178;BME280;35016;55.674;37.468;2023-07-31T01:52:50;98306.41;;;15.74;62.37
49178;BME280;35016;55.674;37.468;2023-07-31T01:55:17;98316.88;;;15.72;62.55
49178;BME280;35016;55.674;37.468;2023-07-31T01:57:45;98308.34;;;15.73;62.22
49178;BME280;35016;55.674;37.468;2023-07-31T02:00:12;98303.03;;;15.68;62.71
49178;BME280;35016;55.674;37.468;2023-07-31T02:02:39;98304.81;;;15.73;62.72
49178;BME280;35016;55.674;37.468;2023-07-31T02:05:06;98309.47;;;15.72;62.59
49178;BME280;35016;55.674;37.468;2023-07-31T02:07:33;98307.53;;;15.73;62.70
49178;BME280;35016;55.674;37.468;2023-07-31T02:10:00;98315.41;;;15.74;62.64
49178;BME280;35016;55.674;37.468;2023-07-31T02:12:29;98315.09;;;15.76;62.61
49178;BME280;35016;55.674;37.468;2023-07-31T02:14:58;98308.00;;;15.75;62.81
49178;BME280;35016;55.674;37.468;2023-07-31T02:17:25;98315.25;;;15.79;62.90
49178;BME280;35016;55.674;37.468;2023-07-31T02:20:13;98311.88;;;15.83;62.78
49178;BME280;35016;55.674;37.468;2023-07-31T02:22:40;98314.59;;;15.83;62.45
49178;BME280;35016;55.674;37.468;2023-07-31T02:25:08;98319.09;;;15.87;62.80
49178;BME280;35016;55.674;37.468;2023-07-31T02:27:35;98313.81;;;15.91;62.51
49178;BME280;35016;55.674;37.468;2023-07-31T02:30:02;98305.28;;;15.92;62.59
49178;BME280;35016;55.674;37.468;2023-07-31T02:32:29;98304.31;;;15.97;62.44
49178;BME280;35016;55.674;37.468;2023-07-31T02:34:56;98305.44;;;15.96;62.30
49178;BME280;35016;55.674;37.468;2023-07-31T02:37:25;98315.22;;;16.05;62.16
49178;BME280;35016;55.674;37.468;2023-07-31T02:39:52;98315.38;;;16.09;62.20
49178;BME280;35016;55.674;37.468;2023-07-31T02:42:19;98313.59;;;16.13;61.77
49178;BME280;35016;55.674;37.468;2023-07-31T02:44:46;98321.63;;;16.18;61.81
49178;BME280;35016;55.674;37.468;2023-07-31T02:47:13;98316.34;;;16.22;61.63
49178;BME280;35016;55.674;37.468;2023-07-31T02:49:40;98316.16;;;16.27;61.68
49178;BME280;35016;55.674;37.468;2023-07-31T02:52:07;98319.84;;;16.31;61.65
49178;BME280;35016;55.674;37.468;2023-07-31T02:54:34;98316.78;;;16.32;61.70
49178;BME280;35016;55.674;37.468;2023-07-31T02:57:01;98316.59;;;16.37;61.67
49178;BME280;35016;55.674;37.468;2023-07-31T02:59:28;98320.13;;;16.38;61.81
49178;BME280;35016;55.674;37.468;2023-07-31T03:01:56;98313.69;;;16.42;61.87
49178;BME280;35016;55.674;37.468;2023-07-31T03:04:25;98318.97;;;16.48;61.94
49178;BME280;35016;55.674;37.468;2023-07-31T03:06:52;98311.75;;;16.52;61.72
49178;BME280;35016;55.674;37.468;2023-07-31T03:09:19;98313.81;;;16.55;61.33
49178;BME280;35016;55.674;37.468;2023-07-31T03:11:46;98316.38;;;16.60;61.40
49178;BME280;35016;55.674;37.468;2023-07-31T03:14:13;98307.97;;;16.65;61.36
49178;BME280;35016;55.674;37.468;2023-07-31T03:16:43;98310.88;;;16.68;61.24
49178;BME280;35016;55.674;37.468;2023-07-31T03:19:10;98311.03;;;16.72;61.19
49178;BME280;35016;55.674;37.468;2023-07-31T03:21:37;98305.69;;;16.76;60.91
49178;BME280;35016;55.674;37.468;2023-07-31T03:24:04;98308.28;;;16.81;60.84
49178;BME280;35016;55.674;37.468;2023-07-31T03:26:32;98300.53;;;16.83;60.57
49178;BME280;35016;55.674;37.468;2023-07-31T03:28:59;98313.84;;;16.93;60.37
49178;BME280;35016;55.674;37.468;2023-07-31T03:31:26;98303.50;;;16.98;60.43
49178;BME280;35016;55.674;37.468;2023-07-31T03:33:54;98313.13;;;17.04;60.05
49178;BME280;35016;55.674;37.468;2023-07-31T03:36:21;98302.16;;;17.04;59.88
49178;BME280;35016;55.674;37.468;2023-07-31T03:38:48;98304.06;;;17.13;59.85
49178;BME280;35016;55.674;37.468;2023-07-31T03:41:15;98308.56;;;17.17;59.79
49178;BME280;35016;55.674;37.468;2023-07-31T03:43:47;98300.47;;;17.21;59.72
49178;BME280;35016;55.674;37.468;2023-07-31T03:46:14;98312.97;;;17.30;59.52
49178;BME280;35016;55.674;37.468;2023-07-31T03:48:42;98296.66;;;17.34;59.34
49178;BME280;35016;55.674;37.468;2023-07-31T03:51:09;98302.78;;;17.40;59.41
49178;BME280;35016;55.674;37.468;2023-07-31T03:53:36;98312.13;;;17.39;59.22
49178;BME280;35016;55.674;37.468;2023-07-31T03:56:03;98307.38;;;17.48;59.35
49178;BME280;35016;55.674;37.468;2023-07-31T03:58:30;98302.38;;;17.50;59.30
49178;BME280;35016;55.674;37.468;2023-07-31T04:00:57;98310.97;;;17.60;59.35
49178;BME280;35016;55.674;37.468;2023-07-31T04:03:24;98312.41;;;17.67;58.95
49178;BME280;35016;55.674;37.468;2023-07-31T04:05:54;98318.16;;;17.74;58.78
49178;BME280;35016;55.674;37.468;2023-07-31T04:08:22;98321.50;;;17.79;58.85
49178;BME280;35016;55.674;37.468;2023-07-31T04:10:50;98327.94;;;17.83;58.79
49178;BME280;35016;55.674;37.468;2023-07-31T04:13:17;98316.75;;;17.88;58.35
49178;BME280;35016;55.674;37.468;2023-07-31T04:15:50;98327.03;;;17.91;58.43
49178;BME280;35016;55.674;37.468;2023-07-31T04:18:22;98319.75;;;17.95;58.36
49178;BME280;35016;55.674;37.468;2023-07-31T04:20:49;98333.41;;;18.04;58.00
49178;BME280;35016;55.674;37.468;2023-07-31T04:23:16;98339.94;;;18.12;58.21
49178;BME280;35016;55.674;37.468;2023-07-31T04:25:42;98332.41;;;18.21;57.93
49178;BME280;35016;55.674;37.468;2023-07-31T04:28:10;98326.41;;;18.27;57.82
49178;BME280;35016;55.674;37.468;2023-07-31T04:30:38;98328.25;;;18.36;57.48
49178;BME280;35016;55.674;37.468;2023-07-31T04:33:05;98331.69;;;18.45;57.48
49178;BME280;35016;55.674;37.468;2023-07-31T04:35:33;98326.13;;;18.53;57.19
49178;BME280;35016;55.674;37.468;2023-07-31T04:38:00;98329.59;;;18.63;57.21
49178;BME280;35016;55.674;37.468;2023-07-31T04:40:27;98341.59;;;18.70;56.91
49178;BME280;35016;55.674;37.468;2023-07-31T04:42:54;98339.88;;;18.78;56.86
49178;BME280;35016;55.674;37.468;2023-07-31T04:45:21;98339.34;;;18.84;56.64
49178;BME280;35016;55.674;37.468;2023-07-31T04:47:49;98337.19;;;18.90;56.61
49178;BME280;35016;55.674;37.468;2023-07-31T04:50:16;98340.50;;;18.96;56.30
49178;BME280;35016;55.674;37.468;2023-07-31T04:52:43;98339.91;;;19.02;56.13
49178;BME280;35016;55.674;37.468;2023-07-31T04:55:10;98339.38;;;19.09;56.16
49178;BME280;35016;55.674;37.468;2023-07-31T04:57:38;98347.38;;;19.14;56.06
49178;BME280;35016;55.674;37.468;2023-07-31T05:00:05;98348.41;;;19.22;56.07
49178;BME280;35016;55.674;37.468;2023-07-31T05:02:33;98347.47;;;19.30;56.00
49178;BME280;35016;55.674;37.468;2023-07-31T05:05:00;98343.31;;;19.36;55.89
49178;BME280;35016;55.674;37.468;2023-07-31T05:07:27;98346.31;;;19.43;55.75
49178;BME280;35016;55.674;37.468;2023-07-31T05:09:54;98346.66;;;19.54;55.47
49178;BME280;35016;55.674;37.468;2023-07-31T05:12:24;98356.38;;;19.63;55.28
49178;BME280;35016;55.674;37.468;2023-07-31T05:14:51;98341.25;;;19.69;55.09
49178;BME280;35016;55.674;37.468;2023-07-31T05:17:18;98343.88;;;19.78;54.78
49178;BME280;35016;55.674;37.468;2023-07-31T05:19:45;98345.13;;;19.80;54.73
49178;BME280;35016;55.674;37.468;2023-07-31T05:22:18;98338.66;;;19.89;54.55
49178;BME280;35016;55.674;37.468;2023-07-31T05:24:46;98344.41;;;19.96;54.49
49178;BME280;35016;55.674;37.468;2023-07-31T05:27:13;98346.19;;;20.04;54.16
49178;BME280;35016;55.674;37.468;2023-07-31T05:29:41;98350.75;;;20.12;54.10
49178;BME280;35016;55.674;37.468;2023-07-31T05:32:08;98355.19;;;20.17;54.03
49178;BME280;35016;55.674;37.468;2023-07-31T05:34:36;98348.97;;;20.20;53.70
49178;BME280;35016;55.674;37.468;2023-07-31T05:37:04;98342.66;;;20.19;53.40
49178;BME280;35016;55.674;37.468;2023-07-31T05:39:32;98342.19;;;20.29;53.50
49178;BME280;35016;55.674;37.468;2023-07-31T05:41:59;98348.22;;;20.35;53.29
49178;BME280;35016;55.674;37.468;2023-07-31T05:44:26;98352.00;;;20.42;53.20
49178;BME280;35016;55.674;37.468;2023-07-31T05:46:53;98353.44;;;20.52;52.95
49178;BME280;35016;55.674;37.468;2023-07-31T05:49:20;98352.03;;;20.58;52.71
49178;BME280;35016;55.674;37.468;2023-07-31T05:51:47;98347.06;;;20.64;52.10
49178;BME280;35016;55.674;37.468;2023-07-31T05:54:14;98342.09;;;20.69;52.17
49178;BME280;35016;55.674;37.468;2023-07-31T05:56:41;98343.06;;;20.77;51.72
49178;BME280;35016;55.674;37.468;2023-07-31T05:59:11;98337.63;;;20.81;51.65
49178;BME280;35016;55.674;37.468;2023-07-31T06:01:39;98340.25;;;20.89;51.35
49178;BME280;35016;55.674;37.468;2023-07-31T06:04:06;98343.25;;;21.00;51.14
49178;BME280;35016;55.674;37.468;2023-07-31T06:06:33;98344.66;;;21.10;50.86
49178;BME280;35016;55.674;37.468;2023-07-31T06:09:00;98347.97;;;21.15;50.50
49178;BME280;35016;55.674;37.468;2023-07-31T06:11:27;98342.09;;;21.17;50.34
49178;BME280;35016;55.674;37.468;2023-07-31T06:13:54;98339.78;;;21.19;50.32
49178;BME280;35016;55.674;37.468;2023-07-31T06:16:22;98345.47;;;21.26;49.93
49178;BME280;35016;55.674;37.468;2023-07-31T06:18:49;98340.84;;;21.30;49.57
49178;BME280;35016;55.674;37.468;2023-07-31T06:21:16;98343.69;;;21.33;49.34
49178;BME280;35016;55.674;37.468;2023-07-31T06:23:43;98348.22;;;21.42;49.36
49178;BME280;35016;55.674;37.468;2023-07-31T06:26:11;98354.63;;;21.46;48.90
49178;BME280;35016;55.674;37.468;2023-07-31T06:28:38;98356.28;;;21.50;48.44
49178;BME280;35016;55.674;37.468;2023-07-31T06:31:05;98348.91;;;21.54;47.95
49178;BME280;35016;55.674;37.468;2023-07-31T06:33:32;98358.06;;;21.58;47.82
49178;BME280;35016;55.674;37.468;2023-07-31T06:35:59;98353.78;;;21.61;47.43
49178;BME280;35016;55.674;37.468;2023-07-31T06:38:26;98358.31;;;21.69;47.16
49178;BME280;35016;55.674;37.468;2023-07-31T06:40:54;98345.81;;;21.75;47.37
49178;BME280;35016;55.674;37.468;2023-07-31T06:43:21;98363.31;;;21.83;46.58
49178;BME280;35016;55.674;37.468;2023-07-31T06:45:48;98354.59;;;21.81;46.31
49178;BME280;35016;55.674;37.468;2023-07-31T06:48:18;98358.22;;;21.85;46.31
49178;BME280;35016;55.674;37.468;2023-07-31T06:50:45;98359.47;;;21.87;46.26
49178;BME280;35016;55.674;37.468;2023-07-31T06:53:12;98358.81;;;21.94;45.95
49178;BME280;35016;55.674;37.468;2023-07-31T06:55:39;98364.94;;;22.03;45.71
49178;BME280;35016;55.674;37.468;2023-07-31T06:58:06;98362.72;;;22.09;45.59
49178;BME280;35016;55.674;37.468;2023-07-31T07:00:33;98362.84;;;22.16;45.28
49178;BME280;35016;55.674;37.468;2023-07-31T07:03:00;98353.09;;;22.22;45.16
49178;BME280;35016;55.674;37.468;2023-07-31T07:05:27;98354.50;;;22.32;45.14
49178;BME280;35016;55.674;37.468;2023-07-31T07:07:54;98361.25;;;22.34;44.91
49178;BME280;35016;55.674;37.468;2023-07-31T07:10:21;98359.00;;;22.40;45.02
49178;BME280;35016;55.674;37.468;2023-07-31T07:12:48;98361.09;;;22.46;44.89
49178;BME280;35016;55.674;37.468;2023-07-31T07:15:16;98362.75;;;22.51;44.80
49178;BME280;35016;55.674;37.468;2023-07-31T07:17:43;98366.31;;;22.51;44.67
49178;BME280;35016;55.674;37.468;2023-07-31T07:20:10;98358.38;;;22.50;44.58
49178;BME280;35016;55.674;37.468;2023-07-31T07:22:37;98351.75;;;22.54;44.36
49178;BME280;35016;55.674;37.468;2023-07-31T07:25:05;98364.88;;;22.58;44.09
49178;BME280;35016;55.674;37.468;2023-07-31T07:27:32;98363.69;;;22.59;43.98
49178;BME280;35016;55.674;37.468;2023-07-31T07:30:02;98374.81;;;22.62;43.42
49178;BME280;35016;55.674;37.468;2023-07-31T07:32:30;98361.84;;;22.66;43.68
49178;BME280;35016;55.674;37.468;2023-07-31T07:34:57;98359.47;;;22.65;43.54
49178;BME280;35016;55.674;37.468;2023-07-31T07:37:24;98368.97;;;22.67;43.56
49178;BME280;35016;55.674;37.468;2023-07-31T07:39:51;98359.59;;;22.72;43.43
49178;BME280;35016;55.674;37.468;2023-07-31T07:42:20;98358.09;;;22.78;43.47
49178;BME280;35016;55.674;37.468;2023-07-31T07:44:47;98359.50;;;22.88;43.24
49178;BME280;35016;55.674;37.468;2023-07-31T07:47:15;98367.53;;;22.96;43.32
49178;BME280;35016;55.674;37.468;2023-07-31T07:49:42;98360.53;;;23.02;43.07
49178;BME280;35016;55.674;37.468;2023-07-31T07:52:14;98365.75;;;23.07;42.83
49178;BME280;35016;55.674;37.468;2023-07-31T07:54:41;98365.81;;;23.11;42.74
49178;BME280;35016;55.674;37.468;2023-07-31T07:57:08;98363.13;;;23.14;42.80
49178;BME280;35016;55.674;37.468;2023-07-31T07:59:35;98368.72;;;23.18;42.83
49178;BME280;35016;55.674;37.468;2023-07-31T08:02:02;98360.09;;;23.23;42.64
49178;BME280;35016;55.674;37.468;2023-07-31T08:04:30;98366.53;;;23.31;42.46
49178;BME280;35016;55.674;37.468;2023-07-31T08:06:57;98384.81;;;23.39;42.48
49178;BME280;35016;55.674;37.468;2023-07-31T08:09:23;98367.50;;;23.42;42.28
49178;BME280;35016;55.674;37.468;2023-07-31T08:11:50;98360.00;;;23.42;42.14
49178;BME280;35016;55.674;37.468;2023-07-31T08:14:17;98369.16;;;23.46;41.94
49178;BME280;35016;55.674;37.468;2023-07-31T08:16:44;98367.25;;;23.51;41.94
49178;BME280;35016;55.674;37.468;2023-07-31T08:19:12;98366.19;;;23.59;41.90
49178;BME280;35016;55.674;37.468;2023-07-31T08:21:39;98365.41;;;23.58;41.90
49178;BME280;35016;55.674;37.468;2023-07-31T08:24:06;98365.44;;;23.62;41.87
49178;BME280;35016;55.674;37.468;2023-07-31T08:26:35;98371.94;;;23.73;41.98
49178;BME280;35016;55.674;37.468;2023-07-31T08:29:02;98366.84;;;23.75;41.53
49178;BME280;35016;55.674;37.468;2023-07-31T08:31:29;98375.94;;;23.75;41.71
49178;BME280;35016;55.674;37.468;2023-07-31T08:33:56;98365.66;;;23.76;41.58
49178;BME280;35016;55.674;37.468;2023-07-31T08:36:23;98372.09;;;23.84;41.50
49178;BME280;35016;55.674;37.468;2023-07-31T08:38:52;98375.00;;;23.94;41.51
49178;BME280;35016;55.674;37.468;2023-07-31T08:41:19;98377.16;;;24.08;41.34
49178;BME280;35016;55.674;37.468;2023-07-31T08:43:46;98377.75;;;24.24;41.23
49178;BME280;35016;55.674;37.468;2023-07-31T08:46:14;98377.09;;;24.31;41.14
49178;BME280;35016;55.674;37.468;2023-07-31T08:48:42;98383.47;;;24.35;40.61
49178;BME280;35016;55.674;37.468;2023-07-31T08:51:10;98379.06;;;24.30;40.59
49178;BME280;35016;55.674;37.468;2023-07-31T08:53:37;98394.16;;;24.36;40.55
49178;BME280;35016;55.674;37.468;2023-07-31T08:56:06;98382.41;;;24.47;40.37
49178;BME280;35016;55.674;37.468;2023-07-31T08:58:34;98392.31;;;24.48;40.28
49178;BME280;35016;55.674;37.468;2023-07-31T09:01:04;98386.00;;;24.51;40.33
49178;BME280;35016;55.674;37.468;2023-07-31T09:03:34;98384.81;;;24.52;39.76
49178;BME280;35016;55.674;37.468;2023-07-31T09:06:03;98376.94;;;24.57;39.57
49178;BME280;35016;55.674;37.468;2023-07-31T09:08:33;98372.59;;;24.56;39.57
49178;BME280;35016;55.674;37.468;2023-07-31T09:11:01;98373.78;;;24.55;39.70
49178;BME280;35016;55.674;37.468;2023-07-31T09:13:32;98379.84;;;24.68;39.37
49178;BME280;35016;55.674;37.468;2023-07-31T09:15:59;98380.78;;;24.83;38.84
49178;BME280;35016;55.674;37.468;2023-07-31T09:18:26;98377.81;;;24.98;38.77
49178;BME280;35016;55.674;37.468;2023-07-31T09:21:06;98381.06;;;25.11;37.95
49178;BME280;35016;55.674;37.468;2023-07-31T09:23:46;98375.19;;;25.16;38.49
49178;BME280;35016;55.674;37.468;2023-07-31T09:26:36;98382.28;;;25.14;38.15
49178;BME280;35016;55.674;37.468;2023-07-31T09:29:06;98381.50;;;25.13;38.77
49178;BME280;35016;55.674;37.468;2023-07-31T09:31:39;98372.44;;;25.20;38.15
49178;BME280;35016;55.674;37.468;2023-07-31T09:34:08;98381.25;;;25.32;38.15
49178;BME280;35016;55.674;37.468;2023-07-31T09:36:43;98379.31;;;25.37;37.77
49178;BME280;35016;55.674;37.468;2023-07-31T09:39:11;98366.94;;;25.27;38.06
49178;BME280;35016;55.674;37.468;2023-07-31T09:41:43;98386.75;;;25.25;37.28
49178;BME280;35016;55.674;37.468;2023-07-31T09:44:11;98374.44;;;25.19;37.50
49178;BME280;35016;55.674;37.468;2023-07-31T09:46:38;98385.84;;;25.14;37.70
49178;BME280;35016;55.674;37.468;2023-07-31T09:49:12;98375.50;;;25.08;37.42
49178;BME280;35016;55.674;37.468;2023-07-31T09:51:41;98383.78;;;25.04;37.98
49178;BME280;35016;55.674;37.468;2023-07-31T09:54:13;98376.63;;;24.99;37.43
49178;BME280;35016;55.674;37.468;2023-07-31T09:56:44;98384.84;;;24.89;37.76
49178;BME280;35016;55.674;37.468;2023-07-31T09:59:14;98375.59;;;24.78;38.03
49178;BME280;35016;55.674;37.468;2023-07-31T10:01:43;98378.38;;;24.78;38.16
49178;BME280;35016;55.674;37.468;2023-07-31T10:04:11;98370.63;;;24.97;38.15
49178;BME280;35016;55.674;37.468;2023-07-31T10:06:40;98367.22;;;25.15;37.80
49178;BME280;35016;55.674;37.468;2023-07-31T10:09:09;98358.59;;;25.23;37.51
49178;BME280;35016;55.674;37.468;2023-07-31T10:11:46;98367.09;;;25.45;37.20
49178;BME280;35016;55.674;37.468;2023-07-31T10:14:21;98371.28;;;25.76;37.08
49178;BME280;35016;55.674;37.468;2023-07-31T10:16:50;98371.75;;;25.88;37.30
49178;BME280;35016;55.674;37.468;2023-07-31T10:19:18;98369.78;;;25.92;36.93
49178;BME280;35016;55.674;37.468;2023-07-31T10:21:45;98365.78;;;25.86;36.71
49178;BME280;35016;55.674;37.468;2023-07-31T10:24:14;98381.25;;;25.84;36.80
49178;BME280;35016;55.674;37.468;2023-07-31T10:26:45;98390.34;;;25.81;36.29
49178;BME280;35016;55.674;37.468;2023-07-31T10:29:13;98382.81;;;25.78;36.89
49178;BME280;35016;55.674;37.468;2023-07-31T10:31:42;98379.63;;;25.76;36.59
49178;BME280;35016;55.674;37.468;2023-07-31T10:34:09;98381.94;;;25.70;36.85
49178;BME280;35016;55.674;37.468;2023-07-31T10:36:36;98389.03;;;25.64;36.44
49178;BME280;35016;55.674;37.468;2023-07-31T10:39:04;98376.66;;;25.51;36.41
49178;BME280;35016;55.674;37.468;2023-07-31T10:41:31;98382.09;;;25.40;36.86
49178;BME280;35016;55.674;37.468;2023-07-31T10:44:00;98379.22;;;25.26;37.20
49178;BME280;35016;55.674;37.468;2023-07-31T10:46:28;98392.19;;;25.15;37.26
49178;BME280;35016;55.674;37.468;2023-07-31T10:49:00;98391.34;;;25.07;36.71
49178;BME280;35016;55.674;37.468;2023-07-31T10:51:34;98379.81;;;25.01;37.33
49178;BME280;35016;55.674;37.468;2023-07-31T10:54:12;98380.63;;;25.06;36.84
49178;BME280;35016;55.674;37.468;2023-07-31T10:56:39;98369.97;;;25.11;37.08
49178;BME280;35016;55.674;37.468;2023-07-31T10:59:07;98380.91;;;25.38;36.80
49178;BME280;35016;55.674;37.468;2023-07-31T11:01:54;98382.41;;;25.79;36.71
49178;BME280;35016;55.674;37.468;2023-07-31T11:04:25;98374.25;;;26.11;36.47
49178;BME280;35016;55.674;37.468;2023-07-31T11:07:01;98369.22;;;26.35;36.15
49178;BME280;35016;55.674;37.468;2023-07-31T11:09:31;98366.50;;;26.63;35.94
49178;BME280;35016;55.674;37.468;2023-07-31T11:12:01;98356.59;;;26.83;35.80
49178;BME280;35016;55.674;37.468;2023-07-31T11:14:28;98364.53;;;26.89;35.39
49178;BME280;35016;55.674;37.468;2023-07-31T11:16:55;98371.28;;;26.80;35.43
49178;BME280;35016;55.674;37.468;2023-07-31T11:19:23;98352.59;;;26.67;35.77
49178;BME280;35016;55.674;37.468;2023-07-31T11:21:51;98363.28;;;26.58;36.11
49178;BME280;35016;55.674;37.468;2023-07-31T11:24:20;98356.53;;;26.51;36.03
49178;BME280;35016;55.674;37.468;2023-07-31T11:26:51;98370.44;;;26.51;35.39
49178;BME280;35016;55.674;37.468;2023-07-31T11:29:19;98364.06;;;26.40;35.86
49178;BME280;35016;55.674;37.468;2023-07-31T11:31:47;98358.41;;;26.22;36.31
49178;BME280;35016;55.674;37.468;2023-07-31T11:34:15;98359.53;;;26.07;36.55
49178;BME280;35016;55.674;37.468;2023-07-31T11:36:53;98364.72;;;26.09;35.99
49178;BME280;35016;55.674;37.468;2023-07-31T11:39:21;98361.16;;;26.12;36.50
49178;BME280;35016;55.674;37.468;2023-07-31T11:41:48;98359.97;;;26.20;36.28
49178;BME280;35016;55.674;37.468;2023-07-31T11:44:15;98362.09;;;26.48;36.50
49178;BME280;35016;55.674;37.468;2023-07-31T11:46:56;98356.63;;;26.94;35.98
49178;BME280;35016;55.674;37.468;2023-07-31T11:49:23;98354.25;;;27.35;35.42
49178;BME280;35016;55.674;37.468;2023-07-31T11:51:53;98360.97;;;27.73;34.88
49178;BME280;35016;55.674;37.468;2023-07-31T11:54:23;98363.31;;;27.96;34.72
49178;BME280;35016;55.674;37.468;2023-07-31T11:56:50;98362.16;;;27.83;34.93
49178;BME280;35016;55.674;37.468;2023-07-31T11:59:17;98368.94;;;27.61;35.21
49178;BME280;35016;55.674;37.468;2023-07-31T12:01:44;98364.59;;;27.38;35.34
49178;BME280;35016;55.674;37.468;2023-07-31T12:04:12;98370.97;;;27.14;35.58
49178;BME280;35016;55.674;37.468;2023-07-31T12:06:39;98371.34;;;26.98;35.48
49178;BME280;35016;55.674;37.468;2023-07-31T12:09:06;98369.78;;;27.01;35.57
49178;BME280;35016;55.674;37.468;2023-07-31T12:11:43;98368.56;;;27.05;35.55
49178;BME280;35016;55.674;37.468;2023-07-31T12:14:24;98375.72;;;26.99;35.98
49178;BME280;35016;55.674;37.468;2023-07-31T12:16:59;98378.84;;;26.80;36.09
49178;BME280;35016;55.674;37.468;2023-07-31T12:19:26;98370.47;;;26.62;36.04
49178;BME280;35016;55.674;37.468;2023-07-31T12:21:58;98381.94;;;26.46;36.11
49178;BME280;35016;55.674;37.468;2023-07-31T12:24:27;98368.41;;;26.34;36.49
49178;BME280;35016;55.674;37.468;2023-07-31T12:26:54;98383.91;;;26.35;36.58
49178;BME280;35016;55.674;37.468;2023-07-31T12:29:22;98377.56;;;26.42;36.68
49178;BME280;35016;55.674;37.468;2023-07-31T12:31:49;98369.25;;;26.60;36.27
49178;BME280;35016;55.674;37.468;2023-07-31T12:34:18;98372.56;;;27.08;36.00
49178;BME280;35016;55.674;37.468;2023-07-31T12:36:45;98374.94;;;27.41;35.66
49178;BME280;35016;55.674;37.468;2023-07-31T12:39:12;98380.88;;;27.43;35.48
49178;BME280;35016;55.674;37.468;2023-07-31T12:41:39;98380.91;;;27.33;35.36
49178;BME280;35016;55.674;37.468;2023-07-31T12:44:06;98378.13;;;27.19;35.61
49178;BME280;35016;55.674;37.468;2023-07-31T12:46:33;98370.56;;;27.05;35.42
49178;BME280;35016;55.674;37.468;2023-07-31T12:49:00;98384.81;;;26.82;36.02
49178;BME280;35016;55.674;37.468;2023-07-31T12:51:27;98383.19;;;26.63;35.96
49178;BME280;35016;55.674;37.468;2023-07-31T12:53:54;98383.53;;;26.47;36.58
49178;BME280;35016;55.674;37.468;2023-07-31T12:56:22;98379.94;;;26.40;36.41
49178;BME280;35016;55.674;37.468;2023-07-31T12:58:53;98376.00;;;26.59;36.51
49178;BME280;35016;55.674;37.468;2023-07-31T13:01:20;98381.63;;;26.80;36.04